Latest Weather Observations for Gladstone Airport

IDQ60801

Issued at 11:32 pm EST Monday 26 June 2017 (issued every 30 minutes, with the page automatically refreshed every 10 minutes)

About weather observations | Map of weather stations | Latest weather observations for QLD | Other Formats
Station Details ID: 039326 Name: GLADSTONE AIRPORT Lat: -23.87 Lon: 151.22 Height: 16.6 m
Data from the previous 72 hours. | See also: Recent months at Gladstone Airport
Date/Time
EST
Temp
°C
App
Temp
°C
Dew
Point
°C
Rel
Hum
%
Delta-T
°C
Wind Press
QNH
hPa
Press
MSL
hPa
Rain since
9am
mm
Dir  Spd
km/h
Gust
km/h
Spd
kts
Gust
kts
26/11:30pm 16.0 17.3 14.0 88 1.1 CALM 0 0 0 0 1022.0 1022.0 0.0
26/11:00pm 16.1 16.0 13.9 87 1.2 SSW 7 9 4 5 1022.3 1022.3 0.0
26/10:30pm 16.2 16.3 14.0 87 1.2 SSW 6 9 3 5 1022.2 1022.2 0.0
26/10:00pm 16.1 17.2 13.6 85 1.4 CALM 0 0 0 0 1022.1 1022.1 0.0
26/09:30pm 16.3 17.4 13.6 84 1.5 CALM 0 0 0 0 1022.0 1022.0 0.0
26/09:00pm 16.5 17.6 13.6 83 1.6 CALM 0 0 0 0 1021.9 1021.9 0.0
26/08:30pm 16.8 17.9 13.5 81 1.9 CALM 0 0 0 0 1021.8 1021.8 0.0
26/08:00pm 17.2 18.2 13.3 78 2.2 CALM 0 0 0 0 1021.5 1021.5 0.0
26/07:30pm 18.1 18.2 14.0 77 2.3 S 6 7 3 4 1021.4 1021.4 0.0
26/07:00pm 19.4 19.6 14.6 74 2.8 ESE 7 9 4 5 1021.0 1021.0 0.0
26/06:30pm 20.1 20.4 14.5 70 3.3 ENE 6 7 3 4 1020.7 1020.7 0.0
26/06:00pm 20.3 20.4 14.4 69 3.4 NE 7 9 4 5 1020.4 1020.4 0.0
26/05:30pm 20.7 20.6 13.9 65 3.9 ENE 7 9 4 5 1019.9 1019.9 0.0
26/05:00pm 21.5 20.7 13.9 62 4.4 NE 11 17 6 9 1019.6 1019.6 0.0
26/04:30pm 22.2 20.5 13.5 57 5.0 NE 15 19 8 10 1019.6 1019.6 0.0
26/04:00pm 22.9 21.1 13.4 55 5.5 NE 15 20 8 11 1019.5 1019.5 0.0
26/03:30pm 23.5 22.0 13.1 52 6.0 NE 13 17 7 9 1019.4 1019.4 0.0
26/03:00pm 23.9 21.9 12.8 49 6.4 ENE 15 19 8 10 1019.4 1019.4 0.0
26/02:30pm 24.5 22.5 11.5 44 7.3 ENE 13 19 7 10 1019.3 1019.3 0.0
26/02:00pm 24.3 22.5 10.9 43 7.5 NE 11 17 6 9 1019.4 1019.4 0.0
26/01:30pm 24.3 22.4 11.9 45 7.0 NE 13 17 7 9 1019.5 1019.5 0.0
26/01:00pm 24.3 22.3 12.6 48 6.7 NE 15 20 8 11 1019.8 1019.8 0.0
26/12:30pm 24.2 22.4 12.2 47 6.8 NNE 13 19 7 10 1020.2 1020.2 0.0
26/12:00pm 23.9 22.1 12.2 48 6.6 ENE 13 19 7 10 1020.4 1020.4 0.0
26/11:30am 23.8 23.2 13.4 52 6.0 E 9 17 5 9 1020.8 1020.8 0.0
26/11:00am 24.3 24.5 14.1 53 6.0 SSW 6 7 3 4 1021.1 1021.1 0.0
26/10:30am 23.0 23.1 13.8 56 5.4 WSW 6 11 3 6 1021.3 1021.3 0.0
26/10:00am 21.6 21.7 14.5 64 4.2 SW 7 11 4 6 1021.5 1021.5 0.0
26/09:30am 19.7 19.3 14.1 70 3.2 SSW 9 13 5 7 1021.4 1021.4 0.0
26/09:00am 17.9 17.0 13.8 77 2.3 SSW 11 17 6 9 1021.3 1021.3 0.0
26/08:30am 16.2 14.6 12.7 80 1.9 SSW 13 19 7 10 1021.0 1021.0 0.0
26/08:00am 14.9 13.6 12.4 85 1.4 SSW 11 17 6 9 1020.8 1020.8 0.0
26/07:30am 13.7 11.8 11.8 88 1.0 SSW 13 19 7 10 1020.5 1020.5 0.0
26/07:00am 13.2 11.6 11.6 90 0.8 SSW 11 17 6 9 1020.1 1020.1 0.0
26/06:30am 13.0 11.4 11.6 91 0.7 SSW 11 17 6 9 1019.8 1019.8 0.0
26/06:00am 13.0 11.0 11.6 91 0.7 SSW 13 17 7 9 1019.6 1019.6 0.0
26/05:30am 13.2 11.7 11.8 91 0.7 SW 11 17 6 9 1019.4 1019.4 0.0
26/05:00am 13.3 11.4 11.9 91 0.7 SSW 13 19 7 10 1019.2 1019.2 0.0
26/04:30am 13.5 11.7 12.1 91 0.8 SW 13 17 7 9 1019.0 1019.0 0.0
26/04:00am 13.7 12.0 12.4 92 0.7 SW 13 19 7 10 1019.1 1019.1 0.0
26/03:30am 13.9 12.6 12.5 91 0.8 SW 11 15 6 8 1019.1 1019.1 0.0
26/03:00am 14.2 13.4 12.9 92 0.7 SW 9 13 5 7 1019.2 1019.2 0.0
26/02:30am 14.4 13.7 13.1 92 0.7 SW 9 13 5 7 1019.3 1019.3 0.0
26/02:00am 14.5 13.7 13.0 91 0.8 SW 9 11 5 6 1019.4 1019.4 0.0
26/01:30am 14.8 14.1 13.3 91 0.8 SSW 9 11 5 6 1019.5 1019.5 0.0
26/01:00am 15.3 14.8 13.8 91 0.8 SW 9 13 5 7 1019.7 1019.7 0.0
26/12:30am 15.4 14.9 13.8 90 0.9 SSW 9 11 5 6 1019.7 1019.7 0.0
26/12:00am 15.6 15.7 13.8 89 1.0 SSW 6 9 3 5 1019.8 1019.8 0.0
 
Date/Time
EST
Temp
°C
App
Temp
°C
Dew
Point
°C
Rel
Hum
%
Delta-T
°C
Wind Press
QNH
hPa
Press
MSL
hPa
Rain since
9am
mm
Dir  Spd
km/h
Gust
km/h
Spd
kts
Gust
kts
25/11:30pm 15.9 15.5 14.1 89 1.0 SSW 9 11 5 6 1019.9 1019.9 0.0
25/11:00pm 16.3 16.0 14.5 89 1.0 SSW 9 13 5 7 1020.1 1020.1 0.0
25/10:30pm 16.4 16.1 14.4 88 1.1 SW 9 13 5 7 1020.2 1020.2 0.0
25/10:00pm 16.5 15.8 14.2 86 1.3 SW 11 13 6 7 1020.1 1020.1 0.0
25/09:30pm 16.8 16.6 14.8 88 1.2 SW 9 11 5 6 1020.0 1020.0 0.0
25/09:00pm 16.4 17.6 13.9 85 1.4 CALM 0 0 0 0 1019.7 1019.7 0.0
25/08:30pm 16.8 18.0 13.9 83 1.6 CALM 0 0 0 0 1019.6 1019.6 0.0
25/08:00pm 17.4 18.7 14.1 81 1.9 CALM 0 0 0 0 1019.3 1019.3 0.0
25/07:30pm 18.0 19.2 13.7 76 2.4 CALM 0 7 0 4 1019.1 1019.1 0.0
25/07:00pm 19.5 21.1 15.0 75 2.6 CALM 0 0 0 0 1018.9 1018.9 0.0
25/06:30pm 19.6 19.9 14.6 73 2.9 NNE 6 7 3 4 1018.5 1018.5 0.0
25/06:00pm 20.1 20.5 14.7 71 3.2 NE 6 11 3 6 1018.0 1018.0 0.0
25/05:30pm 20.6 19.3 13.8 65 3.9 ENE 13 17 7 9 1017.8 1017.8 0.0
25/05:00pm 21.4 19.2 13.3 60 4.6 ENE 17 22 9 12 1017.6 1017.6 0.0
25/04:30pm 22.8 20.7 11.2 48 6.5 ENE 13 17 7 9 1017.5 1017.5 0.0
25/04:00pm 23.9 21.1 9.9 41 7.7 ENE 15 19 8 10 1017.4 1017.4 0.0
25/03:30pm 24.0 21.0 9.2 39 8.0 NE 15 19 8 10 1017.3 1017.3 0.0
25/03:00pm 24.4 21.9 9.6 39 8.1 NE 13 19 7 10 1017.2 1017.2 0.0
25/02:30pm 24.9 21.8 8.8 36 8.7 ENE 15 19 8 10 1017.2 1017.2 0.0
25/02:00pm 24.9 22.1 8.4 35 8.8 NE 13 19 7 10 1017.3 1017.3 0.0
25/01:30pm 24.9 22.1 8.4 35 8.8 NNE 13 19 7 10 1017.3 1017.3 0.0
25/01:00pm 25.1 22.8 7.3 32 9.4 WNW 9 15 5 8 1017.6 1017.6 0.0
25/12:30pm 24.6 22.4 7.7 34 8.9 NNE 9 13 5 7 1018.0 1018.0 0.0
25/12:00pm 24.4 22.2 8.0 35 8.7 ESE 9 11 5 6 1018.4 1018.4 0.0
25/11:30am 24.7 23.1 8.2 35 8.8 ESE 6 9 3 5 1018.9 1018.9 0.0
25/11:00am 23.5 21.4 8.4 38 8.0 SW 9 13 5 7 1019.5 1019.5 0.0
25/10:30am 22.8 20.8 10.3 45 6.9 SW 11 13 6 7 1019.8 1019.8 0.0
25/10:00am 21.4 19.6 10.9 51 5.8 SSW 11 15 6 8 1020.0 1020.0 0.0
25/09:30am 19.4 17.6 10.9 58 4.6 SSW 11 19 6 10 1020.0 1020.0 0.0
25/09:00am 17.9 16.1 11.0 64 3.7 SW 11 17 6 9 1019.8 1019.8 0.0
25/08:30am 16.0 14.5 10.5 70 2.9 SSW 9 15 5 8 1019.6 1019.6 0.0
25/08:00am 13.8 11.3 9.6 76 2.1 SW 13 19 7 10 1019.5 1019.5 0.0
25/07:30am 12.6 10.4 9.4 81 1.6 SW 11 15 6 8 1019.1 1019.1 0.0
25/07:00am 11.5 8.8 8.9 84 1.3 SW 13 17 7 9 1019.0 1019.0 0.0
25/06:30am 11.5 8.8 9.1 85 1.2 SW 13 17 7 9 1018.5 1018.5 0.0
25/06:00am 12.0 9.8 9.4 84 1.3 SW 11 17 6 9 1018.0 1018.0 0.0
25/05:30am 12.0 9.4 9.4 84 1.3 SW 13 19 7 10 1017.9 1017.9 0.0
25/05:00am 11.9 9.3 9.3 84 1.3 SW 13 20 7 11 1017.7 1017.7 0.0
25/04:30am 12.7 10.6 9.7 82 1.5 SSW 11 17 6 9 1017.6 1017.6 0.0
25/04:00am 13.1 11.0 9.7 80 1.7 SW 11 17 6 9 1017.7 1017.7 0.0
25/03:30am 13.7 11.3 9.9 78 2.0 SW 13 17 7 9 1017.8 1017.8 0.0
25/03:00am 14.1 12.0 9.9 76 2.2 SW 11 13 6 7 1017.9 1017.9 0.0
25/02:30am 13.5 11.8 9.9 79 1.9 SW 9 13 5 7 1018.0 1018.0 0.0
25/02:00am 13.5 11.8 9.9 79 1.8 SSW 9 15 5 8 1018.2 1018.2 0.0
25/01:30am 14.5 12.9 10.1 75 2.3 SW 9 13 5 7 1018.3 1018.3 0.0
25/01:00am 14.7 13.2 10.5 76 2.2 SSW 9 11 5 6 1018.7 1018.7 0.0
25/12:30am 14.9 13.4 10.5 75 2.3 SSW 9 11 5 6 1018.6 1018.6 0.0
25/12:00am 14.9 13.8 10.5 75 2.3 SSW 7 11 4 6 1018.6 1018.6 0.0
 
Date/Time
EST
Temp
°C
App
Temp
°C
Dew
Point
°C
Rel
Hum
%
Delta-T
°C
Wind Press
QNH
hPa
Press
MSL
hPa
Rain since
9am
mm
Dir  Spd
km/h
Gust
km/h
Spd
kts
Gust
kts
24/11:30pm 15.3 14.2 10.5 73 2.5 SSW 7 9 4 5 1018.7 1018.7 0.0
24/11:00pm 15.7 14.7 10.9 73 2.6 SSW 7 9 4 5 1018.9 1018.9 0.0
24/10:30pm 16.4 14.7 11.1 71 2.8 SW 11 17 6 9 1018.9 1018.9 0.0
24/10:00pm 15.2 15.0 10.4 73 2.5 SW 2 7 1 4 1018.9 1018.9 0.0
24/09:30pm 15.4 15.6 10.6 73 2.5 CALM 0 0 0 0 1018.9 1018.9 0.0
24/09:00pm 15.9 16.2 10.9 72 2.7 CALM 0 0 0 0 1018.7 1018.7 0.0
24/08:30pm 16.4 16.8 11.3 72 2.7 CALM 0 0 0 0 1018.4 1018.4 0.0
24/08:00pm 17.1 17.6 11.6 70 3.0 CALM 0 0 0 0 1018.3 1018.3 0.0
24/07:30pm 17.7 18.1 11.3 66 3.5 CALM 0 0 0 0 1018.1 1018.1 0.0
24/07:00pm 19.0 18.7 11.3 61 4.2 E 4 6 2 3 1017.7 1017.7 0.0
24/06:30pm 19.8 18.5 11.3 58 4.7 ENE 9 11 5 6 1017.5 1017.5 0.0
24/06:00pm 20.6 19.6 11.0 54 5.3 NNE 7 13 4 7 1017.1 1017.1 0.0
24/05:30pm 21.3 19.7 10.2 49 6.0 NE 9 11 5 6 1016.9 1016.9 0.0
24/05:00pm 22.4 20.6 9.6 44 6.9 N 9 13 5 7 1016.6 1016.6 0.0
24/04:30pm 23.1 20.6 9.8 43 7.2 NNE 13 19 7 10 1016.3 1016.3 0.0
24/04:00pm 23.4 20.2 10.1 43 7.3 NNE 17 24 9 13 1016.1 1016.1 0.0
24/03:30pm 23.9 20.5 10.6 43 7.4 NE 19 24 10 13 1016.0 1016.0 0.0
24/03:00pm 24.2 21.0 11.2 44 7.3 NE 19 24 10 13 1016.0 1016.0 0.0
24/02:30pm 25.1 23.3 9.4 37 8.6 NE 9 13 5 7 1016.0 1016.0 0.0
24/02:00pm 25.5 23.1 7.1 31 9.7 SW 9 17 5 9 1016.1 1016.1 0.0
24/01:30pm 25.5 23.2 7.6 32 9.5 ESE 9 15 5 8 1016.3 1016.3 0.0
24/01:00pm 24.7 21.6 7.4 33 9.1 SSE 13 19 7 10 1016.8 1016.8 0.0
24/12:30pm 25.1 22.9 7.7 33 9.2 WSW 9 19 5 10 1017.2 1017.2 0.0
24/12:00pm 24.4 21.7 7.5 34 8.9 W 11 22 6 12 1018.0 1018.0 0.0
24/11:30am 23.9 22.0 9.1 39 8.0 SW 9 17 5 9 1018.4 1018.4 0.0
24/11:00am 23.4 23.2 11.8 48 6.5 WNW 4 9 2 5 1018.7 1018.7 0.0
24/10:30am 22.0 21.0 12.3 54 5.5 SW 9 11 5 6 1019.0 1019.0 0.0
24/10:00am 20.8 19.2 12.8 60 4.5 SW 13 17 7 9 1019.3 1019.3 0.0
24/09:30am 18.6 17.1 11.9 65 3.7 SSW 11 15 6 8 1019.7 1019.7 0.0
24/09:00am 16.8 14.7 11.3 70 3.0 SW 13 19 7 10 1019.6 1019.6 0.0
24/08:30am 15.2 13.3 10.4 73 2.5 SW 11 17 6 9 1019.6 1019.6 0.0
24/08:00am 13.6 11.6 10.0 79 1.9 SW 11 17 6 9 1019.5 1019.5 0.0
24/07:30am 12.4 9.9 9.6 83 1.4 SW 13 17 7 9 1019.3 1019.3 0.0
24/07:00am 11.4 9.2 9.3 87 1.0 SW 11 17 6 9 1019.0 1019.0 0.0
24/06:30am 11.5 9.3 9.4 87 1.1 SW 11 15 6 8 1018.8 1018.8 0.0
24/06:00am 12.0 9.4 9.4 84 1.3 SSW 13 17 7 9 1018.4 1018.4 0.0
24/05:30am 12.8 10.8 10.0 83 1.4 SSW 11 15 6 8 1018.2 1018.2 0.0
24/05:00am 13.0 11.0 10.2 83 1.4 SSW 11 17 6 9 1018.1 1018.1 0.0
24/04:30am 13.2 11.4 10.7 85 1.3 SW 11 15 6 8 1018.0 1018.0 0.0
24/04:00am 12.9 11.3 10.3 84 1.3 SW 9 13 5 7 1018.1 1018.1 0.0
24/03:30am 13.1 11.9 10.3 83 1.5 SW 7 11 4 6 1018.2 1018.2 0.0
24/03:00am 13.5 11.7 11.0 85 1.3 SW 11 17 6 9 1018.4 1018.4 0.0
24/02:30am 13.6 11.9 11.1 85 1.3 SW 11 15 6 8 1018.6 1018.6 0.0
24/02:00am 13.8 12.1 11.1 84 1.4 SW 11 17 6 9 1018.6 1018.6 0.0
24/01:30am 14.1 12.8 11.1 82 1.6 SSW 9 11 5 6 1018.7 1018.7 0.0
24/01:00am 14.4 13.2 11.6 83 1.5 SW 9 13 5 7 1019.0 1019.0 0.0
24/12:30am 14.4 13.6 11.6 83 1.5 SSW 7 9 4 5 1019.2 1019.2 0.0
24/12:00am 14.6 13.4 11.7 83 1.6 SSW 9 11 5 6 1019.5 1019.5 0.0

Other Formats:

Comma delimited format used in spreadsheet applications
http://www.bom.gov.au/fwo/IDQ60801/IDQ60801.94381.axf

JavaScript Object Notation format (JSON) in row-major order
http://www.bom.gov.au/fwo/IDQ60801/IDQ60801.94381.json